Main page
METAR-TAF:

METAR-TAF

Airports :

Al Maktoum International Airport

Dubai, United Arab Emirates

latitude: 24-53-49N, longitude: 55-09-40E, elevation: 35 m

Current weather observation

The report was made 12 minutes ago, at 08:00 UTC
Wind 16 kt from the Northwest
Temperature 36°C
Humidity 33%
Pressure 1002 hPa
Visibility: 7000 m

METAR: OMDW 250800Z 31016KT 7000 NSC 36/17 Q1002 NOSIG

Time: 12:12 (08:12 UTC)

Forecast

The report was made 3 hours and 11 minutes ago, at 05:01 UTC
Forecast valid from 25 at 06 UTC to 26 at 12 UTC
Wind 13 kt from the West/Northwest
Visibility: 7000 m
Becoming
from 25 at 18 UTC to 25 at 20 UTC
Wind 7 kt from the South
Probability 30%
from 26 at 01 UTC to 26 at 04 UTC
Visibility: 4000 m
haze
Becoming
from 26 at 07 UTC to 26 at 09 UTC
Wind 12 kt from the West/Northwest

TAF: OMDW 250501Z 2506/2612 30013KT 7000 NSC BECMG 2518/2520 19007KT PROB30 2601/2604 4000 HZ BECMG 2607/2609 30012KT

Weather observations and forecasts of more than 4000 airports (METAR and TAF reports).

The available stations are represented by yellow and red dots on the map.

Hover mouse over dot to see the name of the station.

Then click to see weather observations and forecasts.

To change the map : click on the green buttons with a black cross to zoom in, on the green button with a dash to zoom out, or on the green arrows for adjacent maps.


METAR-TAF: